1885 NOT_NAMED (1885068S15069)


IBTrACS version v04r00. Visit IBTrACS website for data access.
Please direct all questions to the IBTrACS Q and A forum

Storm track - Intensity - Wind Radii - Intensity Data - Source Data - All data

Summary Information

Storm ID 1885068S15069
Start Mar 9 00Z
End Mar 15 00Z
ATCF IDs
Track status Best track data.

Storm track plot

Map of storm track

Intensity plots

No Intensity information for this storm


Radial wind information

No radial wind information for this storm


Position and Intensity Table

BASIN ISO_TIME_________ NATURE LAT LON
degrees north degrees east
SI 1885-03-09 00:00:00 TS -14.60 69.20
SI 03:00:00 TS -14.74 69.04
SI 06:00:00 TS -14.90 68.90
SI 09:00:00 TS -15.09 68.79
SI 12:00:00 TS -15.30 68.70
SI 15:00:00 TS -15.50 68.60
SI 18:00:00 TS -15.70 68.50
SI 21:00:00 TS -15.89 68.41
SI 1885-03-10 00:00:00 TS -16.10 68.30
SI 03:00:00 TS -16.35 68.16
SI 06:00:00 TS -16.60 68.00
SI 09:00:00 TS -16.81 67.85
SI 12:00:00 TS -17.00 67.70
SI 15:00:00 TS -17.20 67.54
SI 18:00:00 TS -17.40 67.40
SI 21:00:00 TS -17.61 67.29
SI 1885-03-11 00:00:00 TS -17.80 67.20
SI 03:00:00 TS -17.96 67.09
SI 06:00:00 TS -18.10 67.00
SI 09:00:00 TS -18.25 66.95
SI 12:00:00 TS -18.40 66.90
SI 15:00:00 TS -18.55 66.80
SI 18:00:00 TS -18.70 66.70
SI 21:00:00 TS -18.84 66.65
SI 1885-03-12 00:00:00 TS -19.00 66.60
SI 03:00:00 TS -19.19 66.50
SI 06:00:00 TS -19.40 66.40
SI 09:00:00 TS -19.61 66.35
SI 12:00:00 TS -19.80 66.30
SI 15:00:00 TS -19.96 66.20
SI 18:00:00 TS -20.10 66.10
SI 21:00:00 TS -20.24 66.05
SI 1885-03-13 00:00:00 TS -20.40 66.00
SI 03:00:00 TS -20.59 65.91
SI 06:00:00 TS -20.80 65.80
SI 09:00:00 TS -21.01 65.70
SI 12:00:00 TS -21.20 65.60
SI 15:00:00 TS -21.36 65.49
SI 18:00:00 TS -21.50 65.40
SI 21:00:00 TS -21.63 65.35
SI 1885-03-14 00:00:00 TS -21.80 65.30
SI 03:00:00 TS -22.08 65.20
SI 06:00:00 TS -22.40 65.10
SI 09:00:00 TS -22.70 65.05
SI 12:00:00 TS -23.00 65.00
SI 15:00:00 TS -23.29 64.90
SI 18:00:00 TS -23.60 64.80
SI 21:00:00 TS -23.94 64.74
SI 1885-03-15 00:00:00 TS -24.30 64.70

Source Information

Agency Information
USA
TOKYO
CMA
HKO
NEWDELHI
REUNION
BOM
NADI
WELLINGTON
DS824 s_hem.dat:43:NOT NAMED
TD9636
TD9635
NEUMANN
MLC

All available IBTrACS Data

SEASON BASIN SUBBASIN ISO_TIME_________ NATURE LAT LON DIST2LAND LANDFALL IFLAG USA SSHS DS824 LAT DS824 LON DS824 STAGE STORM SPEED STORM DIR
Year degrees north degrees east km km 1 degrees north degrees east kts degrees
1885 SI MM 1885-03-09 00:00:00 TS -14.60 69.20 1366 1342 _________O____ -1 -14.60 69.20 TC 4 228
1885 SI MM 03:00:00 TS -14.74 69.04 1342 1322 _________P____ -1 -14.74 69.04 TC 4 224
1885 SI MM 06:00:00 TS -14.90 68.90 1322 1301 _________O____ -1 -14.90 68.90 TC 4 214
1885 SI MM 09:00:00 TS -15.09 68.79 1301 1282 _________P____ -1 -15.09 68.79 TC 4 206
1885 SI MM 12:00:00 TS -15.30 68.70 1282 1262 _________O____ -1 -15.30 68.70 TC 5 204
1885 SI MM 15:00:00 TS -15.50 68.60 1262 1242 _________P____ -1 -15.50 68.60 TC 4 206
1885 SI MM 18:00:00 TS -15.70 68.50 1242 1223 _________O____ -1 -15.70 68.50 TC 4 205
1885 SI MM 21:00:00 TS -15.89 68.41 1223 1204 _________P____ -1 -15.89 68.41 TC 4 206
1885 SI MM 1885-03-10 00:00:00 TS -16.10 68.30 1204 1185 _________O____ -1 -16.10 68.30 TC 5 208
1885 SI MM 03:00:00 TS -16.35 68.16 1180 1152 _________P____ -1 -16.35 68.16 TC 6 210
1885 SI MM 06:00:00 TS -16.60 68.00 1152 1134 _________O____ -1 -16.60 68.00 TC 5 213
1885 SI MM 09:00:00 TS -16.81 67.85 1124 1106 _________P____ -1 -16.81 67.85 TC 5 216
1885 SI MM 12:00:00 TS -17.00 67.70 1106 1088 _________O____ -1 -17.00 67.70 TC 5 217
1885 SI MM 15:00:00 TS -17.20 67.54 1078 1060 _________P____ -1 -17.20 67.54 TC 5 215
1885 SI MM 18:00:00 TS -17.40 67.40 1060 1043 _________O____ -1 -17.40 67.40 TC 5 210
1885 SI MM 21:00:00 TS -17.61 67.29 1043 1026 _________P____ -1 -17.61 67.29 TC 4 205
1885 SI MM 1885-03-11 00:00:00 TS -17.80 67.20 1026 1013 _________O____ -1 -17.80 67.20 TC 4 208
1885 SI MM 03:00:00 TS -17.96 67.09 1010 996 _________P____ -1 -17.96 67.09 TC 4 212
1885 SI MM 06:00:00 TS -18.10 67.00 996 993 _________O____ -1 -18.10 67.00 TC 3 205
1885 SI MM 09:00:00 TS -18.25 66.95 983 977 _________P____ -1 -18.25 66.95 TC 3 197
1885 SI MM 12:00:00 TS -18.40 66.90 977 965 _________O____ -1 -18.40 66.90 TC 3 206
1885 SI MM 15:00:00 TS -18.55 66.80 962 949 _________P____ -1 -18.55 66.80 TC 4 212
1885 SI MM 18:00:00 TS -18.70 66.70 949 947 _________O____ -1 -18.70 66.70 TC 3 206
1885 SI MM 21:00:00 TS -18.84 66.65 937 932 _________P____ -1 -18.84 66.65 TC 3 197
1885 SI MM 1885-03-12 00:00:00 TS -19.00 66.60 932 918 _________O____ -1 -19.00 66.60 TC 4 202
1885 SI MM 03:00:00 TS -19.19 66.50 918 904 _________P____ -1 -19.19 66.50 TC 4 205
1885 SI MM 06:00:00 TS -19.40 66.40 904 902 _________O____ -1 -19.40 66.40 TC 4 199
1885 SI MM 09:00:00 TS -19.61 66.35 891 889 _________P____ -1 -19.61 66.35 TC 4 193
1885 SI MM 12:00:00 TS -19.80 66.30 889 878 _________O____ -1 -19.80 66.30 TC 4 202
1885 SI MM 15:00:00 TS -19.96 66.20 877 866 _________P____ -1 -19.96 66.20 TC 4 212
1885 SI MM 18:00:00 TS -20.10 66.10 866 865 _________O____ -1 -20.10 66.10 TC 3 207
1885 SI MM 21:00:00 TS -20.24 66.05 855 854 _________P____ -1 -20.24 66.05 TC 3 197
1885 SI MM 1885-03-13 00:00:00 TS -20.40 66.00 854 844 _________O____ -1 -20.40 66.00 TC 4 200
1885 SI MM 03:00:00 TS -20.59 65.91 844 834 _________P____ -1 -20.59 65.91 TC 4 205
1885 SI MM 06:00:00 TS -20.80 65.80 834 824 _________O____ -1 -20.80 65.80 TC 5 205
1885 SI MM 09:00:00 TS -21.01 65.70 825 816 _________P____ -1 -21.01 65.70 TC 4 205
1885 SI MM 12:00:00 TS -21.20 65.60 817 807 _________O____ -1 -21.20 65.60 TC 4 209
1885 SI MM 15:00:00 TS -21.36 65.49 809 799 _________P____ -1 -21.36 65.49 TC 4 211
1885 SI MM 18:00:00 TS -21.50 65.40 800 800 _________O____ -1 -21.50 65.40 TC 3 206
1885 SI MM 21:00:00 TS -21.63 65.35 792 792 _________P____ -1 -21.63 65.35 TC 3 197
1885 SI MM 1885-03-14 00:00:00 TS -21.80 65.30 795 787 _________O____ -1 -21.80 65.30 TC 5 197
1885 SI MM 03:00:00 TS -22.08 65.20 792 785 _________P____ -1 -22.08 65.20 TC 6 197
1885 SI MM 06:00:00 TS -22.40 65.10 791 791 _________O____ -1 -22.40 65.10 TC 6 193
1885 SI MM 09:00:00 TS -22.70 65.05 791 791 _________P____ -1 -22.70 65.05 TC 6 188
1885 SI MM 12:00:00 TS -23.00 65.00 802 801 _________O____ -1 -23.00 65.00 TC 6 193
1885 SI MM 15:00:00 TS -23.29 64.90 805 800 _________P____ -1 -23.29 64.90 TC 6 197
1885 SI MM 18:00:00 TS -23.60 64.80 809 809 _________O____ -1 -23.60 64.80 TC 7 193
1885 SI MM 21:00:00 TS -23.94 64.74 814 814 _________P____ -1 -23.94 64.74 TC 7 187
1885 SI MM 1885-03-15 00:00:00 TS -24.30 64.70 835 _________O____ -1 -24.30 64.70 TC 7 187